N8767B TXKF-MDLR
Flight info
| Callsign | N8767B |
|---|---|
| Flight time | N/A |
| Altitude | 40000 |
| Route | BORNN1 ANTIG DCT DUPOX DCT LUCTI/N0458F400 DCT JSTIN/N0460F390 L453 ASIVO/N0396F180 W37 KOBET T17 PETRI PETRI2D |
| Aircraft | B737/M-SDE2E3FGHIRWXY/LB1 |
Departure
| Time | 2026-04-27 23:33 |
|---|---|
| Airport | L.F. Wade International Airport (TXKF) |
Arrival
| Time | N/A |
|---|---|
| Airport | Casa De Campo International Airport (MDLR) |
| Time | Latitude | Longitude | Altitude | Speed | Heading |
|---|---|---|---|---|---|
| 2026-04-27 23:17 | 32.36016 | -64.66751 | 5 ft | 0 kts | 118° |
| 2026-04-27 23:27 | 32.36014 | -64.66746 | 5 ft | 3 kts | 118° |
| 2026-04-27 23:28 | 32.36018 | -64.66689 | 7 ft | 11 kts | 60° |
| 2026-04-27 23:28 | 32.36085 | -64.66594 | 5 ft | 10 kts | 58° |
| 2026-04-27 23:28 | 32.36147 | -64.66580 | 6 ft | 11 kts | 320° |
| 2026-04-27 23:28 | 32.36192 | -64.66698 | 7 ft | 23 kts | 283° |
| 2026-04-27 23:29 | 32.36235 | -64.66938 | 6 ft | 37 kts | 282° |
| 2026-04-27 23:29 | 32.36294 | -64.67284 | 3 ft | 49 kts | 281° |
| 2026-04-27 23:29 | 32.36361 | -64.67710 | 3 ft | 53 kts | 280° |
| 2026-04-27 23:29 | 32.36429 | -64.68110 | 5 ft | 46 kts | 281° |
| 2026-04-27 23:30 | 32.36494 | -64.68447 | 6 ft | 39 kts | 283° |
| 2026-04-27 23:30 | 32.36548 | -64.68733 | 7 ft | 32 kts | 282° |
| 2026-04-27 23:30 | 32.36592 | -64.68972 | 5 ft | 29 kts | 282° |
| 2026-04-27 23:30 | 32.36632 | -64.69198 | 3 ft | 27 kts | 282° |
| 2026-04-27 23:31 | 32.36660 | -64.69377 | 3 ft | 8 kts | 351° |
| 2026-04-27 23:31 | 32.36661 | -64.69357 | 4 ft | 2 kts | 104° |
| 2026-04-27 23:31 | 32.36661 | -64.69356 | 4 ft | 0 kts | 105° |
| 2026-04-27 23:32 | 32.36658 | -64.69347 | 4 ft | 0 kts | 104° |
| 2026-04-27 23:32 | 32.36653 | -64.69321 | 3 ft | 24 kts | 104° |
| 2026-04-27 23:32 | 32.36548 | -64.68698 | 7 ft | 127 kts | 100° |
| 2026-04-27 23:33 | 32.36334 | -64.67454 | 524 ft | 169 kts | 105° |
| 2026-04-27 23:33 | 32.36052 | -64.65959 | 1377 ft | 199 kts | 109° |
| 2026-04-27 23:33 | 32.35780 | -64.64367 | 2620 ft | 210 kts | 108° |
| 2026-04-27 23:33 | 32.35451 | -64.62523 | 3024 ft | 243 kts | 107° |
| 2026-04-27 23:34 | 32.35099 | -64.60548 | 3998 ft | 248 kts | 107° |
| 2026-04-27 23:34 | 32.34445 | -64.58556 | 4543 ft | 275 kts | 130° |
| 2026-04-27 23:34 | 32.32965 | -64.57275 | 5776 ft | 259 kts | 168° |
| 2026-04-27 23:34 | 32.31205 | -64.57228 | 6986 ft | 256 kts | 195° |
| 2026-04-27 23:35 | 32.29439 | -64.57711 | 7992 ft | 263 kts | 195° |
| 2026-04-27 23:35 | 32.27632 | -64.58191 | 9027 ft | 270 kts | 195° |
| 2026-04-27 23:35 | 32.25816 | -64.58767 | 10139 ft | 270 kts | 207° |
| 2026-04-27 23:35 | 32.24256 | -64.60060 | 10824 ft | 287 kts | 226° |
| 2026-04-27 23:36 | 32.23080 | -64.62076 | 11084 ft | 317 kts | 240° |
| 2026-04-27 23:36 | 32.21967 | -64.64501 | 11399 ft | 343 kts | 242° |
| 2026-04-27 23:36 | 32.20865 | -64.67003 | 12155 ft | 352 kts | 242° |
| 2026-04-27 23:36 | 32.19734 | -64.69586 | 13123 ft | 355 kts | 243° |
| 2026-04-27 23:37 | 32.18590 | -64.72186 | 14070 ft | 358 kts | 243° |
| 2026-04-27 23:37 | 32.17430 | -64.74803 | 14898 ft | 362 kts | 242° |
| 2026-04-27 23:37 | 32.16251 | -64.77443 | 15746 ft | 365 kts | 242° |
| 2026-04-27 23:37 | 32.15058 | -64.80106 | 16573 ft | 369 kts | 242° |
| 2026-04-27 23:38 | 32.13852 | -64.82787 | 17378 ft | 373 kts | 242° |
| 2026-04-27 23:38 | 32.12625 | -64.85508 | 18165 ft | 377 kts | 242° |
| 2026-04-27 23:38 | 32.11386 | -64.88252 | 18840 ft | 381 kts | 242° |
| 2026-04-27 23:38 | 32.10136 | -64.91018 | 19467 ft | 385 kts | 242° |
| 2026-04-27 23:39 | 32.08868 | -64.93822 | 20184 ft | 387 kts | 242° |
| 2026-04-27 23:39 | 32.07599 | -64.96624 | 20912 ft | 389 kts | 242° |
| 2026-04-27 23:39 | 32.06325 | -64.99435 | 21609 ft | 391 kts | 242° |
| 2026-04-27 23:39 | 32.05054 | -65.02237 | 22273 ft | 393 kts | 242° |
| 2026-04-27 23:40 | 32.03756 | -65.05098 | 22907 ft | 396 kts | 241° |
| 2026-04-27 23:40 | 32.02451 | -65.07972 | 23520 ft | 399 kts | 241° |
| 2026-04-27 23:40 | 32.01134 | -65.10869 | 24034 ft | 402 kts | 241° |
| 2026-04-27 23:40 | 31.99808 | -65.13785 | 24532 ft | 405 kts | 241° |
| 2026-04-27 23:41 | 31.98474 | -65.16716 | 25034 ft | 407 kts | 241° |
| 2026-04-27 23:41 | 31.97132 | -65.19663 | 25525 ft | 409 kts | 241° |
| 2026-04-27 23:41 | 31.95782 | -65.22624 | 26001 ft | 412 kts | 241° |
| 2026-04-27 23:41 | 31.94427 | -65.25593 | 26440 ft | 414 kts | 241° |
| 2026-04-27 23:42 | 31.93059 | -65.28589 | 26888 ft | 416 kts | 241° |
| 2026-04-27 23:42 | 31.91680 | -65.31608 | 27334 ft | 419 kts | 241° |
| 2026-04-27 23:42 | 31.90295 | -65.34635 | 27743 ft | 422 kts | 241° |
| 2026-04-27 23:42 | 31.88902 | -65.37681 | 28148 ft | 424 kts | 241° |
| 2026-04-27 23:43 | 31.87497 | -65.40749 | 28544 ft | 426 kts | 241° |
| 2026-04-27 23:43 | 31.86091 | -65.43815 | 28928 ft | 428 kts | 241° |
| 2026-04-27 23:43 | 31.84688 | -65.46874 | 29367 ft | 428 kts | 241° |
| 2026-04-27 23:43 | 31.83276 | -65.49944 | 29949 ft | 426 kts | 241° |
| 2026-04-27 23:44 | 31.81876 | -65.52988 | 30517 ft | 422 kts | 241° |
| 2026-04-27 23:44 | 31.80482 | -65.56014 | 31006 ft | 420 kts | 241° |
| 2026-04-27 23:44 | 31.79088 | -65.59040 | 31416 ft | 420 kts | 241° |
| 2026-04-27 23:44 | 31.77696 | -65.62059 | 31825 ft | 420 kts | 241° |
| 2026-04-27 23:45 | 31.76305 | -65.65075 | 32223 ft | 419 kts | 241° |
| 2026-04-27 23:45 | 31.74924 | -65.68068 | 32709 ft | 416 kts | 241° |
| 2026-04-27 23:45 | 31.73543 | -65.71058 | 33139 ft | 415 kts | 241° |
| 2026-04-27 23:45 | 31.72165 | -65.74037 | 33513 ft | 415 kts | 241° |
| 2026-04-27 23:46 | 31.70787 | -65.77016 | 33900 ft | 414 kts | 241° |
| 2026-04-27 23:46 | 31.69413 | -65.79983 | 34268 ft | 413 kts | 241° |
| 2026-04-27 23:46 | 31.68044 | -65.82938 | 34654 ft | 411 kts | 241° |
| 2026-04-27 23:46 | 31.66680 | -65.85878 | 35008 ft | 409 kts | 241° |
| 2026-04-27 23:47 | 31.65319 | -65.88811 | 35340 ft | 408 kts | 241° |
| 2026-04-27 23:47 | 31.63964 | -65.91727 | 35684 ft | 406 kts | 241° |
| 2026-04-27 23:47 | 31.62614 | -65.94632 | 36059 ft | 404 kts | 241° |
| 2026-04-27 23:47 | 31.61272 | -65.97517 | 36440 ft | 401 kts | 241° |
| 2026-04-27 23:48 | 31.59935 | -66.00388 | 36765 ft | 400 kts | 241° |
| 2026-04-27 23:48 | 31.58599 | -66.03257 | 36966 ft | 401 kts | 241° |
| 2026-04-27 23:48 | 31.57260 | -66.06131 | 37205 ft | 401 kts | 242° |
| 2026-04-27 23:48 | 31.55940 | -66.08959 | 37523 ft | 399 kts | 242° |
| 2026-04-27 23:49 | 31.54607 | -66.11813 | 37878 ft | 397 kts | 242° |
| 2026-04-27 23:49 | 31.53330 | -66.14665 | 38157 ft | 396 kts | 247° |
| 2026-04-27 23:49 | 31.52555 | -66.17761 | 38372 ft | 398 kts | 259° |
| 2026-04-27 23:49 | 31.52355 | -66.21005 | 38668 ft | 398 kts | 265° |
| 2026-04-27 23:50 | 31.52322 | -66.24250 | 38909 ft | 398 kts | 266° |
| 2026-04-27 23:50 | 31.52319 | -66.27502 | 39052 ft | 399 kts | 266° |
| 2026-04-27 23:50 | 31.52314 | -66.30760 | 39168 ft | 401 kts | 266° |
| 2026-04-27 23:50 | 31.52299 | -66.34037 | 39256 ft | 403 kts | 266° |
| 2026-04-27 23:51 | 31.52237 | -66.40628 | 39499 ft | 404 kts | 266° |
| 2026-04-27 23:51 | 31.52198 | -66.43878 | 39669 ft | 404 kts | 266° |
| 2026-04-27 23:51 | 31.52155 | -66.47211 | 39808 ft | 404 kts | 266° |
| 2026-04-27 23:52 | 31.52110 | -66.50503 | 39927 ft | 405 kts | 266° |
| 2026-04-27 23:52 | 31.52065 | -66.53760 | 40020 ft | 406 kts | 266° |
| 2026-04-27 23:52 | 31.51971 | -66.60408 | 40057 ft | 409 kts | 265° |
| 2026-04-27 23:53 | 31.51874 | -66.67057 | 40055 ft | 408 kts | 265° |
| 2026-04-27 23:53 | 31.51774 | -66.73724 | 40056 ft | 408 kts | 265° |
| 2026-04-27 23:54 | 31.51666 | -66.80376 | 40054 ft | 408 kts | 265° |
| 2026-04-27 23:54 | 31.51529 | -66.86974 | 40046 ft | 408 kts | 265° |
| 2026-04-27 23:55 | 31.51382 | -66.93632 | 40043 ft | 408 kts | 265° |
| 2026-04-27 23:55 | 31.51235 | -67.00285 | 40055 ft | 409 kts | 265° |
| 2026-04-27 23:56 | 31.51086 | -67.06943 | 40056 ft | 409 kts | 265° |
| 2026-04-27 23:56 | 31.50934 | -67.13616 | 40059 ft | 409 kts | 265° |
| 2026-04-27 23:57 | 31.50778 | -67.20290 | 40057 ft | 409 kts | 265° |
| 2026-04-27 23:57 | 31.50619 | -67.26961 | 40066 ft | 410 kts | 265° |
| 2026-04-27 23:58 | 31.50456 | -67.33605 | 40062 ft | 411 kts | 265° |
| 2026-04-27 23:58 | 31.50289 | -67.40315 | 40055 ft | 412 kts | 265° |
| 2026-04-27 23:59 | 31.50119 | -67.47025 | 40060 ft | 412 kts | 265° |
| 2026-04-27 23:59 | 31.49945 | -67.53742 | 40062 ft | 412 kts | 265° |
| 2026-04-28 00:00 | 31.49767 | -67.60450 | 40070 ft | 412 kts | 265° |
| 2026-04-28 00:00 | 31.49587 | -67.67138 | 40063 ft | 413 kts | 265° |
| 2026-04-28 00:01 | 31.49402 | -67.73865 | 40062 ft | 413 kts | 265° |
| 2026-04-28 00:01 | 31.49213 | -67.80586 | 40063 ft | 413 kts | 265° |
| 2026-04-28 00:02 | 31.49022 | -67.87308 | 40063 ft | 413 kts | 265° |
| 2026-04-28 00:02 | 31.48827 | -67.94025 | 40062 ft | 412 kts | 265° |
| 2026-04-28 00:03 | 31.48545 | -67.97353 | 40040 ft | 409 kts | 253° |
| 2026-04-28 00:03 | 31.47484 | -68.00423 | 40076 ft | 407 kts | 239° |
| 2026-04-28 00:03 | 31.45807 | -68.03090 | 40065 ft | 408 kts | 227° |
| 2026-04-28 00:03 | 31.43628 | -68.05245 | 40066 ft | 412 kts | 216° |
| 2026-04-28 00:04 | 31.41084 | -68.06827 | 40060 ft | 418 kts | 204° |
| 2026-04-28 00:04 | 31.35324 | -68.08091 | 40066 ft | 427 kts | 192° |
| 2026-04-28 00:05 | 31.29396 | -68.08837 | 40065 ft | 428 kts | 191° |
| 2026-04-28 00:05 | 31.23471 | -68.09580 | 40060 ft | 428 kts | 192° |
| 2026-04-28 00:06 | 31.17556 | -68.10372 | 40056 ft | 427 kts | 192° |
| 2026-04-28 00:06 | 31.12655 | -68.11050 | 40067 ft | 427 kts | 192° |
| 2026-04-28 00:07 | 31.06746 | -68.11875 | 40075 ft | 427 kts | 192° |
| 2026-04-28 00:07 | 31.00852 | -68.12698 | 40064 ft | 426 kts | 192° |
| 2026-04-28 00:08 | 30.94993 | -68.13514 | 40061 ft | 426 kts | 192° |
| 2026-04-28 00:08 | 30.89108 | -68.14332 | 40068 ft | 426 kts | 192° |
| 2026-04-28 00:09 | 30.83219 | -68.15149 | 40068 ft | 426 kts | 192° |
| 2026-04-28 00:09 | 30.77332 | -68.15965 | 40068 ft | 426 kts | 192° |
| 2026-04-28 00:10 | 30.71440 | -68.16781 | 40064 ft | 426 kts | 192° |
| 2026-04-28 00:10 | 30.65551 | -68.17596 | 40064 ft | 426 kts | 192° |
| 2026-04-28 00:11 | 30.59664 | -68.18409 | 40071 ft | 426 kts | 192° |
| 2026-04-28 00:11 | 30.53806 | -68.19217 | 40071 ft | 427 kts | 192° |
| 2026-04-28 00:12 | 30.47896 | -68.20032 | 40069 ft | 428 kts | 192° |
| 2026-04-28 00:12 | 30.41978 | -68.20846 | 40059 ft | 428 kts | 192° |
| 2026-04-28 00:13 | 30.36061 | -68.21660 | 40072 ft | 429 kts | 192° |
| 2026-04-28 00:13 | 30.30129 | -68.22474 | 40068 ft | 429 kts | 192° |
| 2026-04-28 00:14 | 30.24196 | -68.23288 | 40074 ft | 430 kts | 192° |
| 2026-04-28 00:14 | 30.18254 | -68.24101 | 40047 ft | 430 kts | 192° |
| 2026-04-28 00:15 | 30.12349 | -68.24909 | 40067 ft | 430 kts | 192° |
| 2026-04-28 00:15 | 30.06395 | -68.25722 | 40073 ft | 431 kts | 192° |
| 2026-04-28 00:16 | 30.00440 | -68.26535 | 40071 ft | 432 kts | 192° |
| 2026-04-28 00:16 | 29.94472 | -68.27348 | 40073 ft | 432 kts | 192° |
| 2026-04-28 00:17 | 29.88506 | -68.28160 | 40067 ft | 432 kts | 192° |
| 2026-04-28 00:17 | 29.82530 | -68.28973 | 40075 ft | 432 kts | 192° |
| 2026-04-28 00:18 | 29.76554 | -68.29784 | 40076 ft | 432 kts | 192° |
| 2026-04-28 00:18 | 29.70616 | -68.30590 | 40076 ft | 432 kts | 192° |
| 2026-04-28 00:19 | 29.64643 | -68.31399 | 40069 ft | 432 kts | 192° |
| 2026-04-28 00:19 | 29.58667 | -68.32207 | 40074 ft | 432 kts | 192° |
| 2026-04-28 00:20 | 29.52684 | -68.33016 | 40076 ft | 432 kts | 192° |
| 2026-04-28 00:20 | 29.46707 | -68.33823 | 40077 ft | 432 kts | 192° |
| 2026-04-28 00:21 | 29.40723 | -68.34630 | 40057 ft | 432 kts | 192° |
| 2026-04-28 00:21 | 29.34796 | -68.35427 | 40071 ft | 431 kts | 192° |
| 2026-04-28 00:22 | 29.28833 | -68.36229 | 40075 ft | 431 kts | 192° |
| 2026-04-28 00:22 | 29.22875 | -68.37030 | 40077 ft | 431 kts | 192° |
| 2026-04-28 00:23 | 29.16912 | -68.37831 | 40077 ft | 431 kts | 192° |
| 2026-04-28 00:23 | 29.10958 | -68.38629 | 40069 ft | 430 kts | 192° |
| 2026-04-28 00:24 | 29.05009 | -68.39425 | 40069 ft | 430 kts | 192° |
| 2026-04-28 00:24 | 28.99065 | -68.40220 | 40067 ft | 430 kts | 192° |
| 2026-04-28 00:25 | 28.93130 | -68.41013 | 40074 ft | 430 kts | 192° |
| 2026-04-28 00:25 | 28.87187 | -68.41806 | 40075 ft | 430 kts | 192° |
| 2026-04-28 00:26 | 28.81280 | -68.42593 | 40074 ft | 430 kts | 192° |
| 2026-04-28 00:26 | 28.75338 | -68.43384 | 40085 ft | 430 kts | 192° |
| 2026-04-28 00:27 | 28.69399 | -68.44174 | 40080 ft | 430 kts | 192° |
| 2026-04-28 00:27 | 28.63449 | -68.44964 | 40077 ft | 430 kts | 192° |
| 2026-04-28 00:28 | 28.57514 | -68.45751 | 40077 ft | 429 kts | 192° |
| 2026-04-28 00:28 | 28.51592 | -68.46536 | 40074 ft | 428 kts | 192° |
| 2026-04-28 00:29 | 28.45680 | -68.47318 | 40073 ft | 428 kts | 192° |
| 2026-04-28 00:29 | 28.39769 | -68.48100 | 40076 ft | 428 kts | 192° |
| 2026-04-28 00:30 | 28.33897 | -68.48876 | 40060 ft | 427 kts | 192° |
| 2026-04-28 00:30 | 28.27992 | -68.49654 | 40073 ft | 426 kts | 192° |
| 2026-04-28 00:31 | 28.22093 | -68.50432 | 40080 ft | 426 kts | 192° |
| 2026-04-28 00:31 | 28.16200 | -68.51208 | 40078 ft | 426 kts | 192° |
| 2026-04-28 00:32 | 28.10314 | -68.51982 | 40079 ft | 426 kts | 192° |
| 2026-04-28 00:32 | 28.04465 | -68.52750 | 40069 ft | 425 kts | 193° |
| 2026-04-28 00:33 | 27.98594 | -68.53519 | 40077 ft | 425 kts | 192° |
| 2026-04-28 00:33 | 27.92725 | -68.54324 | 40080 ft | 424 kts | 194° |
| 2026-04-28 00:34 | 27.86912 | -68.55409 | 40080 ft | 423 kts | 195° |
| 2026-04-28 00:34 | 27.81116 | -68.56571 | 40080 ft | 423 kts | 195° |
| 2026-04-28 00:35 | 27.75327 | -68.57713 | 40065 ft | 422 kts | 196° |
| 2026-04-28 00:35 | 27.69549 | -68.58832 | 40077 ft | 421 kts | 196° |
| 2026-04-28 00:36 | 27.63808 | -68.59935 | 40080 ft | 420 kts | 196° |
| 2026-04-28 00:36 | 27.58042 | -68.61041 | 40078 ft | 420 kts | 196° |
| 2026-04-28 00:37 | 27.52268 | -68.62146 | 40073 ft | 419 kts | 196° |
| 2026-04-28 00:37 | 27.46522 | -68.63245 | 40076 ft | 418 kts | 197° |
| 2026-04-28 00:38 | 27.40773 | -68.64343 | 40075 ft | 418 kts | 197° |
| 2026-04-28 00:38 | 27.35043 | -68.65438 | 40079 ft | 417 kts | 197° |
| 2026-04-28 00:39 | 27.29363 | -68.66521 | 40077 ft | 417 kts | 197° |
| 2026-04-28 00:39 | 27.23636 | -68.67612 | 40074 ft | 416 kts | 197° |
| 2026-04-28 00:40 | 27.17935 | -68.68697 | 40073 ft | 415 kts | 197° |
| 2026-04-28 00:40 | 27.12236 | -68.69780 | 40075 ft | 415 kts | 197° |
| 2026-04-28 00:41 | 27.06535 | -68.70864 | 40080 ft | 415 kts | 197° |
| 2026-04-28 00:41 | 27.00849 | -68.71943 | 40080 ft | 415 kts | 197° |
| 2026-04-28 00:42 | 26.95192 | -68.73015 | 40076 ft | 414 kts | 197° |
| 2026-04-28 00:42 | 26.89508 | -68.74091 | 40080 ft | 414 kts | 197° |
| 2026-04-28 00:43 | 26.83809 | -68.75170 | 40077 ft | 415 kts | 197° |
| 2026-04-28 00:43 | 26.78123 | -68.76244 | 40080 ft | 415 kts | 197° |
| 2026-04-28 00:44 | 26.72433 | -68.77318 | 40081 ft | 415 kts | 197° |
| 2026-04-28 00:44 | 26.66738 | -68.78392 | 40071 ft | 415 kts | 198° |
| 2026-04-28 00:45 | 26.61049 | -68.79464 | 40080 ft | 414 kts | 198° |
| 2026-04-28 00:45 | 26.55353 | -68.80536 | 40082 ft | 415 kts | 198° |
| 2026-04-28 00:46 | 26.49654 | -68.81608 | 40076 ft | 415 kts | 198° |
| 2026-04-28 00:46 | 26.43998 | -68.82670 | 40071 ft | 415 kts | 198° |
| 2026-04-28 00:47 | 26.38307 | -68.83737 | 40064 ft | 414 kts | 198° |
| 2026-04-28 00:47 | 26.32630 | -68.84801 | 40080 ft | 413 kts | 198° |
| 2026-04-28 00:48 | 26.26948 | -68.85865 | 40086 ft | 413 kts | 198° |
| 2026-04-28 00:48 | 26.21263 | -68.86926 | 40089 ft | 414 kts | 198° |
| 2026-04-28 00:49 | 26.15570 | -68.87993 | 40081 ft | 415 kts | 198° |
| 2026-04-28 00:49 | 26.09868 | -68.89059 | 40079 ft | 416 kts | 198° |
| 2026-04-28 00:50 | 26.04186 | -68.90119 | 40078 ft | 416 kts | 198° |
| 2026-04-28 00:50 | 25.98473 | -68.91183 | 40076 ft | 416 kts | 198° |
| 2026-04-28 00:51 | 25.92756 | -68.92247 | 40076 ft | 417 kts | 198° |
| 2026-04-28 00:51 | 25.87031 | -68.93311 | 40044 ft | 416 kts | 198° |
| 2026-04-28 00:52 | 25.81334 | -68.94369 | 40070 ft | 415 kts | 198° |
| 2026-04-28 00:52 | 25.75628 | -68.95428 | 40076 ft | 414 kts | 198° |
| 2026-04-28 00:53 | 25.69975 | -68.96477 | 40075 ft | 414 kts | 198° |
| 2026-04-28 00:53 | 25.64287 | -68.97531 | 40073 ft | 414 kts | 198° |
| 2026-04-28 00:54 | 25.58603 | -68.98582 | 40049 ft | 413 kts | 199° |
| 2026-04-28 00:54 | 25.53899 | -68.99451 | 40064 ft | 411 kts | 199° |
| 2026-04-28 00:55 | 25.48259 | -69.00492 | 40074 ft | 410 kts | 199° |
| 2026-04-28 00:55 | 25.42627 | -69.01533 | 40079 ft | 409 kts | 199° |
| 2026-04-28 00:56 | 25.37017 | -69.02568 | 40075 ft | 409 kts | 199° |
| 2026-04-28 00:56 | 25.31443 | -69.03595 | 40042 ft | 408 kts | 199° |
| 2026-04-28 00:57 | 25.25845 | -69.04625 | 40064 ft | 408 kts | 199° |
| 2026-04-28 00:57 | 25.20243 | -69.05656 | 40075 ft | 408 kts | 199° |
| 2026-04-28 00:58 | 25.14636 | -69.06687 | 40073 ft | 408 kts | 199° |
| 2026-04-28 00:58 | 25.09033 | -69.07715 | 40077 ft | 409 kts | 199° |
| 2026-04-28 00:59 | 25.03419 | -69.08745 | 40036 ft | 409 kts | 199° |
| 2026-04-28 00:59 | 24.97795 | -69.09782 | 40071 ft | 409 kts | 199° |
| 2026-04-28 01:00 | 24.92218 | -69.10843 | 40079 ft | 409 kts | 199° |
| 2026-04-28 01:00 | 24.86602 | -69.11917 | 40080 ft | 410 kts | 199° |
| 2026-04-28 01:01 | 24.80967 | -69.12992 | 40081 ft | 411 kts | 199° |
| 2026-04-28 01:01 | 24.75327 | -69.14064 | 40074 ft | 411 kts | 199° |
| 2026-04-28 01:02 | 24.69727 | -69.15126 | 40064 ft | 411 kts | 199° |
| 2026-04-28 01:02 | 24.64044 | -69.16204 | 40076 ft | 412 kts | 199° |
| 2026-04-28 01:03 | 24.58432 | -69.17267 | 40074 ft | 412 kts | 199° |
| 2026-04-28 01:03 | 24.52767 | -69.18339 | 40077 ft | 413 kts | 199° |
| 2026-04-28 01:04 | 24.47106 | -69.19409 | 40095 ft | 413 kts | 199° |
| 2026-04-28 01:04 | 24.41428 | -69.20481 | 40069 ft | 413 kts | 199° |
| 2026-04-28 01:05 | 24.35760 | -69.21551 | 40079 ft | 414 kts | 199° |
| 2026-04-28 01:05 | 24.30079 | -69.22622 | 40076 ft | 414 kts | 199° |
| 2026-04-28 01:06 | 24.24429 | -69.23686 | 40077 ft | 414 kts | 199° |
| 2026-04-28 01:06 | 24.18748 | -69.24755 | 40076 ft | 414 kts | 199° |
| 2026-04-28 01:07 | 24.13059 | -69.25825 | 40071 ft | 414 kts | 198° |
| 2026-04-28 01:07 | 24.07376 | -69.26893 | 40075 ft | 414 kts | 198° |
| 2026-04-28 01:08 | 24.01690 | -69.27960 | 40078 ft | 415 kts | 198° |
| 2026-04-28 01:08 | 23.95990 | -69.29029 | 40077 ft | 415 kts | 198° |
| 2026-04-28 01:09 | 23.90289 | -69.30097 | 40075 ft | 415 kts | 198° |
| 2026-04-28 01:09 | 23.84623 | -69.31157 | 40070 ft | 415 kts | 198° |
| 2026-04-28 01:10 | 23.78922 | -69.32224 | 40075 ft | 415 kts | 198° |
| 2026-04-28 01:10 | 23.73218 | -69.33290 | 40077 ft | 416 kts | 198° |
| 2026-04-28 01:11 | 23.67499 | -69.34358 | 40075 ft | 416 kts | 198° |
| 2026-04-28 01:11 | 23.61822 | -69.35416 | 40076 ft | 416 kts | 198° |
| 2026-04-28 01:12 | 23.56111 | -69.36481 | 40061 ft | 416 kts | 198° |
| 2026-04-28 01:12 | 23.50400 | -69.37544 | 40067 ft | 417 kts | 198° |
| 2026-04-28 01:13 | 23.44687 | -69.38607 | 40077 ft | 417 kts | 198° |
| 2026-04-28 01:13 | 23.36104 | -69.40202 | 40077 ft | 417 kts | 198° |
| 2026-04-28 01:14 | 23.30383 | -69.41264 | 40076 ft | 417 kts | 198° |
| 2026-04-28 01:14 | 23.24652 | -69.42327 | 40076 ft | 417 kts | 198° |
| 2026-04-28 01:15 | 23.18928 | -69.43387 | 40079 ft | 417 kts | 198° |
| 2026-04-28 01:15 | 23.13207 | -69.44446 | 40079 ft | 417 kts | 198° |
| 2026-04-28 01:16 | 23.07479 | -69.45506 | 40077 ft | 417 kts | 198° |
| 2026-04-28 01:16 | 23.01789 | -69.46558 | 40077 ft | 417 kts | 198° |
| 2026-04-28 01:17 | 22.96065 | -69.47615 | 40071 ft | 417 kts | 197° |
| 2026-04-28 01:17 | 22.90342 | -69.48671 | 40077 ft | 417 kts | 197° |
| 2026-04-28 01:18 | 22.84609 | -69.49728 | 40077 ft | 418 kts | 197° |
| 2026-04-28 01:18 | 22.78866 | -69.50786 | 40081 ft | 418 kts | 197° |
| 2026-04-28 01:19 | 22.73117 | -69.51844 | 40071 ft | 418 kts | 197° |
| 2026-04-28 01:19 | 22.67408 | -69.52893 | 40074 ft | 418 kts | 197° |
| 2026-04-28 01:20 | 22.61655 | -69.53951 | 40064 ft | 419 kts | 197° |
| 2026-04-28 01:20 | 22.55900 | -69.55007 | 40072 ft | 420 kts | 197° |
| 2026-04-28 01:21 | 22.50132 | -69.56065 | 40072 ft | 421 kts | 197° |
| 2026-04-28 01:21 | 22.44349 | -69.57125 | 40073 ft | 421 kts | 197° |
| 2026-04-28 01:22 | 22.38569 | -69.58183 | 40065 ft | 421 kts | 197° |
| 2026-04-28 01:22 | 22.32794 | -69.59239 | 40070 ft | 421 kts | 197° |
| 2026-04-28 01:23 | 22.27043 | -69.60290 | 40074 ft | 421 kts | 197° |
| 2026-04-28 01:23 | 22.21269 | -69.61345 | 40074 ft | 421 kts | 197° |
| 2026-04-28 01:24 | 22.15484 | -69.62401 | 40073 ft | 421 kts | 197° |
| 2026-04-28 01:24 | 22.09704 | -69.63454 | 40050 ft | 421 kts | 197° |
| 2026-04-28 01:25 | 22.03927 | -69.64507 | 40062 ft | 421 kts | 197° |
| 2026-04-28 01:25 | 21.98145 | -69.65559 | 40072 ft | 421 kts | 197° |
| 2026-04-28 01:26 | 21.92367 | -69.66611 | 40075 ft | 421 kts | 197° |
| 2026-04-28 01:26 | 21.86582 | -69.67662 | 40074 ft | 421 kts | 197° |
| 2026-04-28 01:27 | 21.80799 | -69.68712 | 40057 ft | 422 kts | 197° |
| 2026-04-28 01:27 | 21.75042 | -69.69756 | 40062 ft | 421 kts | 196° |
| 2026-04-28 01:28 | 21.69265 | -69.70804 | 40069 ft | 421 kts | 196° |
| 2026-04-28 01:28 | 21.63487 | -69.71850 | 40071 ft | 421 kts | 196° |
| 2026-04-28 01:29 | 21.57700 | -69.72898 | 40071 ft | 421 kts | 196° |
| 2026-04-28 01:29 | 21.51915 | -69.73944 | 40071 ft | 421 kts | 196° |
| 2026-04-28 01:30 | 21.46126 | -69.74990 | 40064 ft | 421 kts | 196° |
| 2026-04-28 01:30 | 21.40391 | -69.76026 | 40065 ft | 420 kts | 196° |
| 2026-04-28 01:31 | 21.34618 | -69.77068 | 40067 ft | 420 kts | 196° |
| 2026-04-28 01:31 | 21.28843 | -69.78109 | 40068 ft | 420 kts | 196° |
| 2026-04-28 01:32 | 21.23005 | -69.78808 | 40063 ft | 430 kts | 185° |
| 2026-04-28 01:32 | 21.16993 | -69.78349 | 40056 ft | 433 kts | 183° |
| 2026-04-28 01:33 | 21.11033 | -69.77848 | 40065 ft | 432 kts | 183° |
| 2026-04-28 01:33 | 21.05035 | -69.77381 | 40069 ft | 432 kts | 183° |
| 2026-04-28 01:34 | 20.99033 | -69.76929 | 40071 ft | 432 kts | 183° |
| 2026-04-28 01:34 | 20.93047 | -69.76478 | 40068 ft | 432 kts | 183° |
| 2026-04-28 01:35 | 20.87053 | -69.76027 | 40049 ft | 431 kts | 183° |
| 2026-04-28 01:35 | 20.81064 | -69.75579 | 40058 ft | 431 kts | 183° |
| 2026-04-28 01:36 | 20.75076 | -69.75131 | 40072 ft | 431 kts | 183° |
| 2026-04-28 01:36 | 20.69091 | -69.74684 | 40071 ft | 431 kts | 183° |
| 2026-04-28 01:37 | 20.63136 | -69.74239 | 40071 ft | 431 kts | 183° |
| 2026-04-28 01:37 | 20.57141 | -69.73792 | 40072 ft | 431 kts | 183° |
| 2026-04-28 01:38 | 20.51161 | -69.73346 | 40074 ft | 431 kts | 183° |
| 2026-04-28 01:38 | 20.45183 | -69.72901 | 40062 ft | 431 kts | 183° |
| 2026-04-28 01:39 | 20.39200 | -69.72455 | 40070 ft | 431 kts | 183° |
| 2026-04-28 01:39 | 20.34220 | -69.72085 | 40069 ft | 431 kts | 183° |
| 2026-04-28 01:40 | 20.27233 | -69.71566 | 40067 ft | 431 kts | 183° |
| 2026-04-28 01:40 | 20.21248 | -69.71121 | 40067 ft | 431 kts | 183° |
| 2026-04-28 01:41 | 20.15309 | -69.70681 | 40073 ft | 431 kts | 183° |
| 2026-04-28 01:41 | 20.09329 | -69.70237 | 40070 ft | 431 kts | 183° |
| 2026-04-28 01:42 | 20.03344 | -69.69794 | 40069 ft | 431 kts | 183° |
| 2026-04-28 01:42 | 19.97368 | -69.69351 | 40074 ft | 431 kts | 183° |
| 2026-04-28 01:43 | 19.91433 | -69.69356 | 40051 ft | 424 kts | 189° |
| 2026-04-28 01:43 | 19.86531 | -69.69654 | 40055 ft | 423 kts | 190° |
| 2026-04-28 01:44 | 19.80650 | -69.70008 | 40060 ft | 423 kts | 189° |
| 2026-04-28 01:44 | 19.74827 | -69.70315 | 40034 ft | 407 kts | 189° |
| 2026-04-28 01:45 | 19.72045 | -69.70448 | 40024 ft | 392 kts | 190° |
| 2026-04-28 01:45 | 19.69377 | -69.70577 | 40035 ft | 377 kts | 190° |
| 2026-04-28 01:45 | 19.66804 | -69.70703 | 40020 ft | 362 kts | 190° |
| 2026-04-28 01:45 | 19.64333 | -69.70826 | 40026 ft | 349 kts | 191° |
| 2026-04-28 01:46 | 19.61956 | -69.70947 | 40023 ft | 336 kts | 191° |
| 2026-04-28 01:46 | 19.59639 | -69.71067 | 40032 ft | 332 kts | 191° |
| 2026-04-28 01:46 | 19.54960 | -69.71320 | 40062 ft | 347 kts | 191° |
| 2026-04-28 01:47 | 19.50035 | -69.71573 | 40057 ft | 360 kts | 190° |
| 2026-04-28 01:47 | 19.45010 | -69.71772 | 40046 ft | 364 kts | 186° |
| 2026-04-28 01:48 | 19.39995 | -69.71520 | 40030 ft | 355 kts | 185° |
| 2026-04-28 01:48 | 19.35064 | -69.71243 | 40053 ft | 355 kts | 185° |
| 2026-04-28 01:49 | 19.30115 | -69.70996 | 40054 ft | 356 kts | 185° |
| 2026-04-28 01:49 | 19.27664 | -69.70660 | 40015 ft | 369 kts | 170° |
| 2026-04-28 01:49 | 19.25289 | -69.69538 | 40045 ft | 384 kts | 154° |
| 2026-04-28 01:50 | 19.21024 | -69.65969 | 40044 ft | 394 kts | 148° |
| 2026-04-28 01:50 | 19.16822 | -69.62225 | 40040 ft | 396 kts | 148° |
| 2026-04-28 01:51 | 19.12574 | -69.58498 | 40048 ft | 398 kts | 149° |
| 2026-04-28 01:51 | 19.08282 | -69.54776 | 40045 ft | 400 kts | 149° |
| 2026-04-28 01:52 | 19.03963 | -69.51043 | 40053 ft | 401 kts | 149° |
| 2026-04-28 01:52 | 18.99626 | -69.47297 | 40053 ft | 402 kts | 149° |
| 2026-04-28 01:53 | 18.95300 | -69.43562 | 40040 ft | 400 kts | 149° |
| 2026-04-28 01:53 | 18.91043 | -69.39825 | 40046 ft | 396 kts | 147° |
| 2026-04-28 01:54 | 18.86880 | -69.36100 | 40073 ft | 393 kts | 147° |
| 2026-04-28 01:54 | 18.82710 | -69.32378 | 40055 ft | 391 kts | 148° |
| 2026-04-28 01:55 | 18.78554 | -69.28680 | 40070 ft | 390 kts | 148° |
| 2026-04-28 01:55 | 18.74402 | -69.24990 | 40073 ft | 390 kts | 148° |
| 2026-04-28 01:56 | 18.70194 | -69.21387 | 40062 ft | 389 kts | 150° |
| 2026-04-28 01:56 | 18.65907 | -69.17880 | 40057 ft | 391 kts | 150° |
| 2026-04-28 01:57 | 18.61607 | -69.14338 | 40079 ft | 392 kts | 150° |
| 2026-04-28 01:57 | 18.57303 | -69.10774 | 40050 ft | 394 kts | 149° |
| 2026-04-28 01:58 | 18.55064 | -69.09155 | 40042 ft | 383 kts | 165° |
| 2026-04-28 01:58 | 18.53424 | -69.08569 | 40080 ft | 370 kts | 176° |